createdAt,value
2023-04-24T00:01:48.349Z,99652.72
2023-04-24T00:04:18.082Z,99643.91
2023-04-24T00:06:50.600Z,99640.16
2023-04-24T00:09:18.140Z,99647.34
2023-04-24T00:11:46.504Z,99633.13
2023-04-24T00:14:14.048Z,99629.00
2023-04-24T00:16:40.797Z,99622.81
2023-04-24T00:19:07.821Z,99622.09
2023-04-24T00:21:34.626Z,99618.44
2023-04-24T00:24:01.164Z,99611.19
2023-04-24T00:26:27.696Z,99604.97
2023-04-24T00:28:54.132Z,99598.31
2023-04-24T00:31:20.951Z,99593.44
2023-04-24T00:33:47.648Z,99592.31
2023-04-24T00:36:14.720Z,99581.25
2023-04-24T00:38:41.520Z,99580.69
2023-04-24T00:41:08.348Z,99593.03
2023-04-24T00:43:35.368Z,99585.03
2023-04-24T00:46:02.882Z,99580.69
2023-04-24T00:48:29.620Z,99580.00
2023-04-24T00:50:56.287Z,99578.81
2023-04-24T00:53:23.056Z,99587.41
2023-04-24T00:55:49.836Z,99587.22
2023-04-24T00:58:16.674Z,99587.53
2023-04-24T01:00:44.084Z,99579.44
2023-04-24T01:03:12.105Z,99576.16
2023-04-24T01:05:38.547Z,99581.66
2023-04-24T01:08:05.355Z,99575.91
2023-04-24T01:10:34.056Z,99582.34
2023-04-24T01:13:00.991Z,99568.34
2023-04-24T01:15:27.820Z,99575.22
2023-04-24T01:17:55.531Z,99560.38
2023-04-24T01:20:22.762Z,99559.94
2023-04-24T01:22:49.627Z,99572.19
2023-04-24T01:25:16.209Z,99564.59
2023-04-24T01:27:42.909Z,99562.00
2023-04-24T01:30:10.147Z,99566.97
2023-04-24T01:32:37.588Z,99575.22
2023-04-24T01:35:04.538Z,99565.13
2023-04-24T01:37:33.123Z,99565.72
2023-04-24T01:40:00.161Z,99561.63
2023-04-24T01:42:26.810Z,99549.81
2023-04-24T01:44:53.708Z,99553.81
2023-04-24T01:47:20.632Z,99550.69
2023-04-24T01:49:49.056Z,99544.47
2023-04-24T01:52:16.160Z,99545.53
2023-04-24T01:54:42.722Z,99550.00
2023-04-24T01:57:11.164Z,99542.31
2023-04-24T01:59:37.706Z,99549.06
2023-04-24T02:02:04.625Z,99550.88
2023-04-24T02:04:31.036Z,99541.72
2023-04-24T02:06:57.779Z,99543.38
2023-04-24T02:09:24.532Z,99540.63
2023-04-24T02:11:51.249Z,99541.41
2023-04-24T02:14:17.666Z,99539.13
2023-04-24T02:16:44.976Z,99542.34
2023-04-24T02:19:11.688Z,99539.25
2023-04-24T02:21:38.618Z,99533.06
2023-04-24T02:24:05.250Z,99533.00
2023-04-24T02:26:32.683Z,99532.16
2023-04-24T02:28:59.236Z,99530.16
2023-04-24T02:31:25.696Z,99531.06
2023-04-24T02:33:52.218Z,99540.28
2023-04-24T02:36:19.104Z,99529.41
2023-04-24T02:38:45.625Z,99535.22
2023-04-24T02:41:12.198Z,99536.88
2023-04-24T02:43:38.721Z,99534.19
2023-04-24T02:46:05.887Z,99533.66
2023-04-24T02:48:32.669Z,99532.59
2023-04-24T02:50:59.227Z,99530.91
2023-04-24T02:53:26.401Z,99523.13
2023-04-24T02:55:53.134Z,99527.34
2023-04-24T02:58:20.944Z,99525.84
2023-04-24T03:00:48.315Z,99524.38
2023-04-24T03:03:15.155Z,99526.75
2023-04-24T03:05:42.073Z,99520.38
2023-04-24T03:08:08.738Z,99517.53
2023-04-24T03:10:35.605Z,99516.06
2023-04-24T03:13:02.652Z,99527.97
2023-04-24T03:15:29.232Z,99526.25
2023-04-24T03:17:56.863Z,99526.09
2023-04-24T03:20:23.968Z,99525.97
2023-04-24T03:22:50.781Z,99523.44
2023-04-24T03:25:17.187Z,99526.56
2023-04-24T03:27:43.728Z,99523.00
2023-04-24T03:30:10.383Z,99525.16
2023-04-24T03:32:38.329Z,99523.28
2023-04-24T03:35:05.229Z,99521.00
2023-04-24T03:37:31.987Z,99517.38
2023-04-24T03:39:59.255Z,99520.25
2023-04-24T03:42:25.710Z,99518.06
2023-04-24T03:44:54.671Z,99524.41
2023-04-24T03:47:21.321Z,99521.00
2023-04-24T03:49:47.809Z,99528.28
2023-04-24T03:52:14.601Z,99518.81
2023-04-24T03:54:41.756Z,99521.50
2023-04-24T03:57:08.252Z,99511.22
2023-04-24T03:59:35.152Z,99517.91
2023-04-24T04:02:01.740Z,99522.22
2023-04-24T04:04:28.474Z,99526.63
2023-04-24T04:06:55.400Z,99518.97
2023-04-24T04:09:22.176Z,99521.00
2023-04-24T04:11:49.274Z,99528.19
2023-04-24T04:14:15.881Z,99519.03
2023-04-24T04:16:44.665Z,99521.91
2023-04-24T04:19:12.132Z,99514.41
2023-04-24T04:21:38.650Z,99516.00
2023-04-24T04:24:06.475Z,99518.97
2023-04-24T04:26:36.668Z,99512.16
2023-04-24T04:29:04.168Z,99519.41
2023-04-24T04:31:31.785Z,99518.97
2023-04-24T04:33:59.847Z,99527.59
2023-04-24T04:36:26.912Z,99534.84
2023-04-24T04:38:55.680Z,99530.19
2023-04-24T04:41:22.612Z,99522.41
2023-04-24T04:43:52.000Z,99524.66
2023-04-24T04:46:19.021Z,99533.78
2023-04-24T04:48:47.038Z,99544.88
2023-04-24T04:51:14.359Z,99539.47
2023-04-24T04:53:41.208Z,99523.72
2023-04-24T04:56:08.930Z,99539.41
2023-04-24T04:58:35.392Z,99541.03
2023-04-24T05:01:02.091Z,99531.00
2023-04-24T05:03:29.006Z,99541.16
2023-04-24T05:05:55.855Z,99540.44
2023-04-24T05:10:52.842Z,99525.00
2023-04-24T05:13:28.379Z,99525.81
2023-04-24T05:15:58.868Z,99523.09
2023-04-24T05:18:26.523Z,99521.16
2023-04-24T05:20:52.979Z,99520.50
2023-04-24T05:23:19.576Z,99530.16
2023-04-24T05:25:48.002Z,99528.78
2023-04-24T05:28:14.405Z,99522.53
2023-04-24T05:30:41.304Z,99524.94
2023-04-24T05:33:08.233Z,99532.00
2023-04-24T05:35:39.858Z,99538.84
2023-04-24T05:38:06.804Z,99531.16
2023-04-24T05:40:33.530Z,99532.75
2023-04-24T05:42:59.863Z,99532.75
2023-04-24T05:45:26.445Z,99527.50
2023-04-24T05:47:53.737Z,99539.25
2023-04-24T05:50:21.131Z,99535.44
2023-04-24T05:52:48.629Z,99533.91
2023-04-24T05:55:18.910Z,99530.94
2023-04-24T05:57:47.065Z,99533.88
2023-04-24T06:00:14.086Z,99530.31
2023-04-24T06:02:40.930Z,99527.91
2023-04-24T06:05:09.296Z,99532.41
2023-04-24T06:07:36.127Z,99540.13
2023-04-24T06:10:02.447Z,99527.94
2023-04-24T06:12:30.425Z,99535.56
2023-04-24T06:14:57.246Z,99544.22
2023-04-24T06:17:24.278Z,99540.44
2023-04-24T06:19:51.991Z,99538.94
2023-04-24T06:22:18.808Z,99541.75
2023-04-24T06:24:45.833Z,99532.84
2023-04-24T06:27:14.004Z,99541.13
2023-04-24T06:29:42.245Z,99540.16
2023-04-24T06:32:09.198Z,99543.03
2023-04-24T06:34:36.818Z,99548.59
2023-04-24T06:37:03.572Z,99549.47
2023-04-24T06:39:30.240Z,99544.34
2023-04-24T06:41:57.026Z,99546.88
2023-04-24T06:44:23.683Z,99542.69
2023-04-24T06:46:50.370Z,99544.16
2023-04-24T06:49:17.049Z,99546.50
2023-04-24T06:51:44.216Z,99544.00
2023-04-24T06:54:11.263Z,99543.28
2023-04-24T06:56:38.681Z,99540.91
2023-04-24T06:59:05.214Z,99543.06
2023-04-24T07:01:32.132Z,99530.13
2023-04-24T07:03:58.770Z,99538.41
2023-04-24T07:06:26.606Z,99538.22
2023-04-24T07:08:53.735Z,99526.44
2023-04-24T07:11:21.374Z,99528.66
2023-04-24T07:13:48.814Z,99528.88
2023-04-24T07:16:15.604Z,99524.63
2023-04-24T07:18:42.216Z,99527.91
2023-04-24T07:21:09.485Z,99526.25
2023-04-24T07:23:36.267Z,99523.97
2023-04-24T07:26:03.311Z,99530.31
2023-04-24T07:28:32.181Z,99532.34
2023-04-24T07:30:59.706Z,99540.34
2023-04-24T07:33:26.634Z,99535.81
2023-04-24T07:35:53.525Z,99546.81
2023-04-24T07:38:23.156Z,99554.41
2023-04-24T07:40:50.520Z,99538.84
2023-04-24T07:43:17.635Z,99552.25
2023-04-24T07:45:44.758Z,99552.41
2023-04-24T07:48:11.674Z,99553.47
2023-04-24T07:50:38.557Z,99545.47
2023-04-24T07:53:05.385Z,99562.03
2023-04-24T07:55:32.414Z,99559.28
2023-04-24T07:58:00.236Z,99551.75
2023-04-24T08:00:26.694Z,99557.13
2023-04-24T08:02:53.657Z,99566.31
2023-04-24T08:05:21.764Z,99564.75
2023-04-24T08:07:49.921Z,99565.22
2023-04-24T08:10:17.934Z,99562.19
2023-04-24T08:12:44.586Z,99554.47
2023-04-24T08:15:12.637Z,99539.88
2023-04-24T08:17:39.496Z,99552.78
2023-04-24T08:20:07.018Z,99552.16
2023-04-24T08:22:34.156Z,99570.72
2023-04-24T08:25:01.149Z,99576.56
2023-04-24T08:27:29.613Z,99565.41
2023-04-24T08:29:56.576Z,99571.16
2023-04-24T08:32:23.391Z,99570.84
2023-04-24T08:34:53.601Z,99580.28
2023-04-24T08:37:20.261Z,99586.69
2023-04-24T08:39:46.671Z,99584.59
2023-04-24T08:42:14.243Z,99597.88
2023-04-24T08:44:41.080Z,99592.66
2023-04-24T08:47:09.981Z,99600.03
2023-04-24T08:49:37.261Z,99603.19
2023-04-24T08:52:03.860Z,99602.84
2023-04-24T08:54:30.991Z,99603.25
2023-04-24T08:57:02.334Z,99605.91
2023-04-24T08:59:29.928Z,99605.41
2023-04-24T09:01:58.295Z,99604.47
2023-04-24T09:04:28.671Z,99597.09
2023-04-24T09:06:57.356Z,99592.28
2023-04-24T09:09:24.769Z,99602.97
2023-04-24T09:11:52.359Z,99597.81
2023-04-24T09:14:21.371Z,99598.81
2023-04-24T09:16:48.592Z,99599.41
2023-04-24T09:19:15.572Z,99590.84
2023-04-24T09:21:45.735Z,99601.09
2023-04-24T09:24:18.624Z,99606.19
2023-04-24T09:26:45.572Z,99613.44
2023-04-24T09:29:16.866Z,99617.31
2023-04-24T09:31:43.895Z,99617.69
2023-04-24T09:34:10.983Z,99615.41
2023-04-24T09:36:39.075Z,99620.00
2023-04-24T09:39:06.595Z,99614.19
2023-04-24T09:41:33.730Z,99620.66
2023-04-24T09:44:12.197Z,99616.53
2023-04-24T09:46:38.894Z,99611.19
2023-04-24T09:49:09.641Z,99622.00
2023-04-24T09:51:40.088Z,99606.63
2023-04-24T09:54:16.864Z,99615.75
2023-04-24T09:56:45.622Z,99612.03
2023-04-24T09:59:13.185Z,99610.69
2023-04-24T10:01:42.900Z,99625.22
2023-04-24T10:04:16.780Z,99618.06
2023-04-24T10:06:43.709Z,99621.47
2023-04-24T10:09:13.080Z,99626.47
2023-04-24T10:11:42.673Z,99627.53
2023-04-24T10:14:12.163Z,99630.50
2023-04-24T10:16:40.618Z,99618.59
2023-04-24T10:19:08.397Z,99625.78
2023-04-24T10:21:40.110Z,99625.00
2023-04-24T10:24:08.447Z,99632.09
2023-04-24T10:26:35.957Z,99631.09
2023-04-24T10:29:02.916Z,99636.03
2023-04-24T10:31:33.292Z,99638.66
2023-04-24T10:34:01.730Z,99642.47
2023-04-24T10:36:33.384Z,99640.84
2023-04-24T10:39:00.922Z,99629.88
2023-04-24T10:41:27.855Z,99645.66
2023-04-24T10:44:09.327Z,99634.75
2023-04-24T10:46:36.051Z,99624.41
2023-04-24T10:49:09.786Z,99637.00
2023-04-24T10:51:54.380Z,99636.31
2023-04-24T10:54:25.117Z,99634.00
2023-04-24T10:56:52.787Z,99650.38
2023-04-24T10:59:26.557Z,99655.97
2023-04-24T11:01:56.759Z,99650.28
2023-04-24T11:04:33.495Z,99655.75
2023-04-24T11:07:01.375Z,99643.78
2023-04-24T11:09:29.668Z,99649.41
2023-04-24T11:12:10.167Z,99644.50
2023-04-24T11:14:55.965Z,99646.25
2023-04-24T11:17:36.165Z,99654.47
2023-04-24T11:20:25.730Z,99656.47
2023-04-24T11:22:58.656Z,99649.63
2023-04-24T11:25:26.027Z,99647.34
2023-04-24T11:28:04.186Z,99651.25
2023-04-24T11:30:31.141Z,99647.84
2023-04-24T11:33:03.295Z,99644.59
2023-04-24T11:35:32.012Z,99645.31
2023-04-24T11:40:29.609Z,99647.69
2023-04-24T11:42:56.797Z,99642.53
2023-04-24T11:45:24.732Z,99632.13
2023-04-24T11:47:53.122Z,99634.56
2023-04-24T11:50:20.866Z,99638.63
2023-04-24T11:52:48.462Z,99639.16
2023-04-24T11:55:15.327Z,99641.28
2023-04-24T11:57:49.292Z,99644.59
2023-04-24T12:00:23.028Z,99640.19
2023-04-24T12:02:51.084Z,99642.41
2023-04-24T12:05:22.702Z,99634.25
2023-04-24T12:07:50.370Z,99643.72
2023-04-24T12:10:21.790Z,99650.22
2023-04-24T12:12:51.289Z,99645.00
2023-04-24T12:15:18.900Z,99648.91
2023-04-24T12:17:45.982Z,99645.50
2023-04-24T12:20:13.376Z,99650.38
2023-04-24T12:22:55.799Z,99641.75
2023-04-24T12:25:26.822Z,99635.75
2023-04-24T12:28:05.998Z,99636.31
2023-04-24T12:30:34.398Z,99619.06
2023-04-24T12:33:04.540Z,99643.13
2023-04-24T12:35:36.573Z,99643.53
2023-04-24T12:38:07.480Z,99638.03
2023-04-24T12:40:34.214Z,99635.94
2023-04-24T12:43:00.930Z,99649.72
2023-04-24T12:45:29.303Z,99646.38
2023-04-24T12:47:56.281Z,99641.13
2023-04-24T12:50:23.129Z,99635.53
2023-04-24T12:52:50.849Z,99643.31
2023-04-24T12:55:17.452Z,99632.91
2023-04-24T12:57:44.109Z,99632.66
2023-04-24T13:00:10.995Z,99635.09
2023-04-24T13:02:38.449Z,99638.59
2023-04-24T13:05:05.550Z,99648.34
2023-04-24T13:07:32.489Z,99648.88
2023-04-24T13:09:59.848Z,99643.72
2023-04-24T13:12:27.345Z,99650.41
2023-04-24T13:14:54.252Z,99660.56
2023-04-24T13:17:21.224Z,99652.34
2023-04-24T13:19:47.795Z,99659.72
2023-04-24T13:22:14.971Z,99645.94
2023-04-24T13:24:42.597Z,99649.56
2023-04-24T13:27:09.968Z,99647.28
2023-04-24T13:29:37.154Z,99655.81
2023-04-24T13:32:04.013Z,99656.13
2023-04-24T13:34:31.567Z,99657.69
2023-04-24T13:36:59.323Z,99651.16
2023-04-24T13:39:26.796Z,99659.47
2023-04-24T13:41:54.368Z,99659.78
2023-04-24T13:44:22.675Z,99662.78
2023-04-24T13:46:50.914Z,99663.53
2023-04-24T13:49:17.947Z,99670.44
2023-04-24T13:51:45.149Z,99658.69
2023-04-24T13:54:12.141Z,99665.19
2023-04-24T13:56:39.896Z,99663.63
2023-04-24T13:59:06.602Z,99670.63
2023-04-24T14:01:34.933Z,99665.34
2023-04-24T14:04:03.332Z,99666.53
2023-04-24T14:06:30.470Z,99665.56
2023-04-24T14:08:57.428Z,99657.34
2023-04-24T14:11:24.556Z,99657.94
2023-04-24T14:13:51.760Z,99651.78
2023-04-24T14:16:18.669Z,99653.72
2023-04-24T14:18:45.610Z,99648.25
2023-04-24T14:21:13.686Z,99636.84
2023-04-24T14:23:41.753Z,99648.34
2023-04-24T14:26:08.863Z,99649.13
2023-04-24T14:28:35.500Z,99639.56
2023-04-24T14:31:03.180Z,99642.88
2023-04-24T14:33:30.169Z,99641.59
2023-04-24T14:35:56.948Z,99642.84
2023-04-24T14:38:23.572Z,99646.84
2023-04-24T14:41:05.655Z,99641.97
2023-04-24T14:43:33.751Z,99648.81
2023-04-24T14:46:00.536Z,99651.19
2023-04-24T14:48:27.291Z,99653.06
2023-04-24T14:50:54.471Z,99650.94
2023-04-24T14:53:21.667Z,99649.78
2023-04-24T14:55:48.529Z,99644.53
2023-04-24T14:58:16.696Z,99650.59
2023-04-24T15:00:43.534Z,99646.94
2023-04-24T15:03:11.472Z,99647.53
2023-04-24T15:05:38.954Z,99643.16
2023-04-24T15:08:06.254Z,99645.69
2023-04-24T15:10:33.434Z,99650.31
2023-04-24T15:13:00.479Z,99664.25
2023-04-24T15:15:27.965Z,99689.97
2023-04-24T15:17:55.103Z,99684.66
2023-04-24T15:20:22.510Z,99693.00
2023-04-24T15:22:49.825Z,99695.72
2023-04-24T15:25:16.784Z,99704.69
2023-04-24T15:27:49.631Z,99699.78
2023-04-24T15:30:16.904Z,99707.69
2023-04-24T15:32:58.922Z,99712.06
2023-04-24T15:35:25.889Z,99700.38
2023-04-24T15:37:53.917Z,99714.94
2023-04-24T15:40:20.769Z,99714.25
2023-04-24T15:42:47.929Z,99718.16
2023-04-24T15:45:15.455Z,99722.59
2023-04-24T15:47:43.107Z,99723.38
2023-04-24T15:50:14.335Z,99725.75
2023-04-24T15:52:42.464Z,99727.09
2023-04-24T15:55:11.874Z,99724.16
2023-04-24T15:57:39.384Z,99727.66
2023-04-24T16:00:07.518Z,99730.53
2023-04-24T16:02:34.446Z,99743.41
2023-04-24T16:05:02.141Z,99741.28
2023-04-24T16:07:30.466Z,99736.75
2023-04-24T16:09:57.516Z,99774.19
2023-04-24T16:12:28.304Z,99768.00
2023-04-24T16:14:55.963Z,99766.34
2023-04-24T16:17:28.033Z,99777.72
2023-04-24T16:19:58.032Z,99782.72
2023-04-24T16:22:28.315Z,99808.41
2023-04-24T16:24:55.693Z,99798.94
2023-04-24T16:27:22.330Z,99792.03
2023-04-24T16:29:49.519Z,99800.47
2023-04-24T16:32:16.542Z,99796.31
2023-04-24T16:34:43.491Z,99809.59
2023-04-24T16:37:10.651Z,99816.69
2023-04-24T16:39:38.781Z,99817.88
2023-04-24T16:42:06.861Z,99823.47
2023-04-24T16:44:33.952Z,99824.19
2023-04-24T16:47:01.106Z,99823.94
2023-04-24T16:49:31.291Z,99848.22
2023-04-24T16:51:58.197Z,99846.47
2023-04-24T16:54:28.192Z,99857.53
2023-04-24T16:56:55.772Z,99851.09
2023-04-24T16:59:23.409Z,99863.13
2023-04-24T17:01:50.256Z,99858.09
2023-04-24T17:04:18.702Z,99864.13
2023-04-24T17:06:48.608Z,99874.06
2023-04-24T17:09:16.146Z,99877.91
2023-04-24T17:11:43.138Z,99883.69
2023-04-24T17:14:09.660Z,99884.94
2023-04-24T17:16:37.814Z,99880.91
2023-04-24T17:19:05.883Z,99879.69
2023-04-24T17:21:33.042Z,99884.66
2023-04-24T17:23:59.989Z,99878.44
2023-04-24T17:26:26.574Z,99879.97
2023-04-24T17:28:55.143Z,99886.13
2023-04-24T17:31:21.845Z,99886.28
2023-04-24T17:33:48.626Z,99887.13
2023-04-24T17:36:15.179Z,99881.25
2023-04-24T17:38:41.516Z,99884.16
2023-04-24T17:41:08.222Z,99883.00
2023-04-24T17:43:34.964Z,99880.34
2023-04-24T17:46:02.491Z,99875.13
2023-04-24T17:48:38.311Z,99881.69
2023-04-24T17:51:04.663Z,99875.50
2023-04-24T17:53:32.118Z,99878.81
2023-04-24T17:56:01.995Z,99874.91
2023-04-24T17:58:29.392Z,99875.34
2023-04-24T18:00:56.146Z,99876.78
2023-04-24T18:03:23.197Z,99879.84
2023-04-24T18:05:49.765Z,99875.28
2023-04-24T18:08:16.356Z,99886.63
2023-04-24T18:10:44.982Z,99880.16
2023-04-24T18:13:12.069Z,99882.75
2023-04-24T18:15:42.999Z,99885.66
2023-04-24T18:18:11.054Z,99882.00
2023-04-24T18:20:38.877Z,99889.19
2023-04-24T18:23:07.309Z,99885.03
2023-04-24T18:25:33.912Z,99896.97
2023-04-24T18:28:00.643Z,99896.03
2023-04-24T18:30:28.145Z,99897.53
2023-04-24T18:32:54.945Z,99890.72
2023-04-24T18:35:22.140Z,99890.38
2023-04-24T18:37:49.554Z,99902.97
2023-04-24T18:40:16.600Z,99896.50
2023-04-24T18:42:43.749Z,99899.88
2023-04-24T18:45:13.800Z,99906.59
2023-04-24T18:47:43.258Z,99905.06
2023-04-24T18:50:12.803Z,99907.53
2023-04-24T18:52:40.293Z,99911.97
2023-04-24T18:55:07.584Z,99917.28
2023-04-24T18:57:35.771Z,99919.69
2023-04-24T19:00:03.369Z,99913.69
2023-04-24T19:02:31.788Z,99926.00
2023-04-24T19:04:59.810Z,99925.13
2023-04-24T19:07:29.513Z,99924.78
2023-04-24T19:09:56.904Z,99932.53
2023-04-24T19:12:30.657Z,99929.19
2023-04-24T19:15:03.074Z,99934.25
2023-04-24T19:17:32.103Z,99929.28
2023-04-24T19:19:59.759Z,99935.00
2023-04-24T19:22:31.411Z,99941.25
2023-04-24T19:25:01.451Z,99936.66
2023-04-24T19:27:28.489Z,99943.28
2023-04-24T19:29:58.577Z,99946.59
2023-04-24T19:32:28.881Z,99944.09
2023-04-24T19:34:58.606Z,99939.59
2023-04-24T19:37:29.240Z,99942.50
2023-04-24T19:40:03.528Z,99946.59
2023-04-24T19:42:43.388Z,99932.50
2023-04-24T19:45:14.012Z,99945.25
2023-04-24T19:47:41.867Z,99941.50
2023-04-24T19:50:18.314Z,99941.09
2023-04-24T19:52:51.235Z,99951.47
2023-04-24T19:55:21.403Z,99946.66
2023-04-24T19:57:53.886Z,99946.19
2023-04-24T20:00:24.213Z,99949.88
2023-04-24T20:02:54.727Z,99953.19
2023-04-24T20:05:21.815Z,99944.34
2023-04-24T20:07:51.251Z,99941.59
2023-04-24T20:10:31.113Z,99937.56
2023-04-24T20:12:58.050Z,99943.34
2023-04-24T20:15:24.769Z,99950.63
2023-04-24T20:17:51.740Z,99945.31
2023-04-24T20:20:18.522Z,99952.97
2023-04-24T20:22:46.896Z,99939.44
2023-04-24T20:25:15.347Z,99955.84
2023-04-24T20:27:42.834Z,99945.75
2023-04-24T20:30:13.372Z,99953.09
2023-04-24T20:32:42.044Z,99952.72
2023-04-24T20:35:09.798Z,99951.13
2023-04-24T20:37:37.115Z,99954.22
2023-04-24T20:40:06.985Z,99951.13
2023-04-24T20:42:34.421Z,99961.84
2023-04-24T20:45:02.015Z,99957.47
2023-04-24T20:47:28.855Z,99955.06
2023-04-24T20:49:55.963Z,99961.81
2023-04-24T20:52:22.590Z,99954.75
2023-04-24T20:54:49.924Z,99961.63
2023-04-24T20:57:16.929Z,99969.63
2023-04-24T20:59:43.721Z,99962.66
2023-04-24T21:02:12.059Z,99960.34
2023-04-24T21:04:39.806Z,99972.06
2023-04-24T21:07:07.130Z,99967.16
2023-04-24T21:09:35.387Z,99972.09
2023-04-24T21:12:04.087Z,99960.97
2023-04-24T21:14:31.402Z,99972.31
2023-04-24T21:17:00.321Z,99972.81
2023-04-24T21:19:27.718Z,99969.00
2023-04-24T21:21:55.065Z,99969.16
2023-04-24T21:24:23.019Z,99971.91
2023-04-24T21:26:51.719Z,99968.41
2023-04-24T21:29:19.009Z,99965.66
2023-04-24T21:31:47.478Z,99967.75
2023-04-24T21:34:16.213Z,99964.28
2023-04-24T21:36:43.793Z,99963.00
2023-04-24T21:39:11.350Z,99962.22
2023-04-24T21:41:38.553Z,99965.91
2023-04-24T21:44:06.101Z,99969.53
2023-04-24T21:46:34.087Z,99960.28
2023-04-24T21:49:02.579Z,99960.44
2023-04-24T21:51:29.520Z,99966.16
2023-04-24T21:53:56.732Z,99966.66
2023-04-24T21:56:23.985Z,99963.66
2023-04-24T21:58:50.785Z,99972.00
2023-04-24T22:01:17.287Z,99980.53
2023-04-24T22:03:43.809Z,99968.19
2023-04-24T22:06:10.763Z,99964.66
2023-04-24T22:08:38.738Z,99972.91
2023-04-24T22:11:13.528Z,99976.16
2023-04-24T22:13:47.278Z,99976.78
2023-04-24T22:16:14.951Z,99974.13
2023-04-24T22:18:47.522Z,99970.94
2023-04-24T22:21:14.832Z,99975.03
2023-04-24T22:23:42.261Z,99974.94
2023-04-24T22:26:08.679Z,99977.09
2023-04-24T22:28:35.693Z,99977.78
2023-04-24T22:31:02.723Z,99974.88
2023-04-24T22:33:30.582Z,99983.06
2023-04-24T22:35:57.810Z,99980.75
2023-04-24T22:38:26.858Z,99979.88
2023-04-24T22:40:54.109Z,99987.28
2023-04-24T22:43:20.952Z,99989.78
2023-04-24T22:45:47.775Z,99985.69
2023-04-24T22:48:14.281Z,99995.34
2023-04-24T22:50:42.095Z,99995.09
2023-04-24T22:53:09.537Z,99997.19
2023-04-24T22:55:36.441Z,99998.81
2023-04-24T22:58:04.071Z,99999.47
2023-04-24T23:00:31.262Z,99997.97
2023-04-24T23:02:59.384Z,100000.41
2023-04-24T23:05:26.939Z,100000.06
2023-04-24T23:07:55.167Z,100006.13
2023-04-24T23:10:23.233Z,100001.66
2023-04-24T23:12:49.838Z,100005.34
2023-04-24T23:15:16.797Z,100003.41
2023-04-24T23:17:43.600Z,100003.34
2023-04-24T23:20:14.467Z,100002.34
2023-04-24T23:22:41.916Z,100001.53
2023-04-24T23:25:10.273Z,100010.56
2023-04-24T23:27:37.950Z,99999.97
2023-04-24T23:30:08.256Z,100002.06
2023-04-24T23:32:34.926Z,99999.59
2023-04-24T23:35:02.489Z,99997.91
2023-04-24T23:37:29.215Z,100006.56
2023-04-24T23:39:56.228Z,100007.50
2023-04-24T23:42:23.468Z,100011.78
2023-04-24T23:44:51.212Z,100007.19
2023-04-24T23:47:18.245Z,100004.53
2023-04-24T23:49:45.063Z,100003.19
2023-04-24T23:52:12.038Z,100002.00
2023-04-24T23:54:39.977Z,100008.97
2023-04-24T23:57:06.820Z,100008.19
2023-04-24T23:59:33.375Z,100002.63
